Rice, WA

12:56 AM PDT on October 23, 2014 (GMT -0700)
KWAKETTL2 | Change Station
CLOSE
Current Station
Personal Weather Station
Location: Kettle Falls, WA
Elevation: 579 m
Nearby Weather Stations

Elev 579 m 48.49 °N, 118.16 °W | Updated 44 seconds ago

Rain
Rain
10.9 °C
Feels Like 10.9 °C
N
6.4
Wind Variable Wind from SW
Gusts 6.4 km/h

Today
High -- | Low -- °C
--% Chance of Precip.
Yesterday
High -- | Low -- °C
Precip. -- mm
7:24 AM 5:48 PM
Waning Crescent, 0% visible
Pressure 1008 hPa
Visibility 16.1 kilometers
Clouds Overcast 1524 m
Dew Point 10 °C
Humidity 97%
Rainfall 28 mm
Snow Depth Not available.
UV 0 out of 12
Pollen 1.10 out of 12
PM2.5 Good
Flu Activity Sporadic
METAR KDEW 230653Z AUTO 16007KT 10SM -RA OVC050 10/08 A2976 RMK AO2 RAB0554E17B48 SLP078 P0001 T01000083

More Conditions Fewer Conditions

Pressure 1008 hPa
Visibility 16.1 kilometers
Clouds Overcast 1524 m
Dew Point 10 °C
Humidity 97%
Rainfall 28 mm
Snow Depth Not available.
UV 0 out of 12
Pollen 1.10 out of 12
PM2.5 Good
Flu Activity Sporadic
METAR KDEW 230653Z AUTO 16007KT 10SM -RA OVC050 10/08 A2976 RMK AO2 RAB0554E17B48 SLP078 P0001 T01000083

More Conditions Fewer Conditions

10-Day Weather Forecast

Almanac

Astronomy

Oct. 23, 2014 Rise Set
Actual Time 7:24 AM PDT 5:48 PM PDT
Civil Twilight 6:52 AM PDT 6:20 PM PDT
Nautical Twilight 6:16 AM PDT 6:56 PM PDT
Astronomical Twilight 5:39 AM PDT 7:32 PM PDT
Moon 7:07 AM PDT 5:52 PM PDT
Length of Visible Light 11h 27m
Length of Day
10h 23m
Tomorrow will be 3m 20s shorter.
Waning Crescent, 0% of the Moon is Illuminated
Today
Waning Crescent
Oct 23
New
Oct 30
First Quarter
Nov 6
Full
Nov 14
Last Quarter

Today's Extremes

State Highs State Lows

Community

WunderPhotos

Upload Photos

1,764,194 photos uploaded!

Nearby

Air Quality

  Air Quality AQ Index Pollutant
Yesterday Good
PM10
Current Good
PM2.5
Wednesday Good
PM10
Wednesday Good
CO
Thursday Good
PM10
Thursday Good
CO
Friday Good
PM10
Friday Good
CO

Snow Depth

Station Depth Elevation
Moses Mountain 0 in 5300 ft
Bunchgrass Meadow 0 in 5000 ft
Quartz Peak 1 in 4700 ft
Pope Ridge 0 in 3540 ft
Harts Pass 4 in 6500 ft

Earthquake Activity

City Distance Mag. Time & Date
No recent earthquake activity has been reported nearby.
Minimum magnitude displayed is 2.5.

Coastal Water Temperatures

Place Temperature
No Stations Reporting

Nearby Weather Stations